Time;durP1;ratioP1;P1;durP2;ratioP2;P2;SDS_P1;SDS_P2;PMS_P1;PMS_P2;Temp;Humidity;BMP_temperature;BMP_pressure;BME280_temperature;BME280_humidity;BME280_pressure;Samples;Min_cycle;Max_cycle;Signal;HPM_P1;HPM_P2
2024/01/03 00:02:26;;;;;;;5.88;4.55;;;;;;;6.34;100.00;98360.03;6242438;23;20331;-65
2024/01/03 00:04:53;;;;;;;5.35;4.53;;;;;;;6.37;99.91;98359.72;6241416;23;20052;-67
2024/01/03 00:07:20;;;;;;;6.40;4.80;;;;;;;6.38;100.00;98363.25;6241512;23;20142;-67
2024/01/03 00:09:47;;;;;;;6.88;4.32;;;;;;;6.38;100.00;98361.41;6241983;23;20347;-67
2024/01/03 00:12:22;;;;;;;6.55;4.22;;;;;;;6.38;99.84;98358.72;6242147;23;20099;-66
2024/01/03 00:14:50;;;;;;;6.00;3.80;;;;;;;6.40;100.00;98356.69;6242385;23;20259;-67
2024/01/03 00:17:18;;;;;;;6.72;4.10;;;;;;;6.39;100.00;98355.00;6271744;22;20397;-64
2024/01/03 00:19:57;;;;;;;9.57;4.57;;;;;;;6.40;100.00;98345.91;6274807;22;20020;-64
2024/01/03 00:22:25;;;;;;;6.75;4.18;;;;;;;6.40;100.00;98351.28;6274939;22;20020;-65
2024/01/03 00:25:03;;;;;;;6.20;4.20;;;;;;;6.42;100.00;98354.66;6275045;22;20019;-65
2024/01/03 00:27:30;;;;;;;8.82;3.70;;;;;;;6.44;100.00;98346.41;6274291;22;20015;-64
2024/01/03 00:30:04;;;;;;;5.40;3.20;;;;;;;6.43;100.00;98345.56;6275358;22;20027;-65
2024/01/03 00:32:33;;;;;;;5.03;2.83;;;;;;;6.46;99.97;98351.66;6273953;22;20434;-64
2024/01/03 00:35:09;;;;;;;5.93;2.90;;;;;;;6.48;99.87;98355.00;6274901;22;20024;-65
2024/01/03 00:37:36;;;;;;;4.75;3.58;;;;;;;6.49;100.00;98348.63;6274556;22;20095;-65
2024/01/03 00:40:17;;;;;;;4.07;2.55;;;;;;;6.51;99.92;98343.91;6274254;22;20027;-64
2024/01/03 00:42:44;;;;;;;3.58;2.70;;;;;;;6.50;100.00;98347.59;6274599;22;20447;-63
2024/01/03 00:45:11;;;;;;;3.95;2.40;;;;;;;6.58;99.97;98342.22;6275344;22;20077;-63
2024/01/03 00:47:38;;;;;;;4.50;2.72;;;;;;;6.54;99.94;98340.84;6276613;22;20050;-63
2024/01/03 00:50:05;;;;;;;5.45;2.95;;;;;;;6.55;100.00;98346.09;6276402;22;20125;-63
2024/01/03 00:52:31;;;;;;;6.85;2.72;;;;;;;6.50;99.86;98337.66;6276486;22;20026;-63
2024/01/03 00:54:58;;;;;;;4.32;3.05;;;;;;;6.52;99.73;98340.19;6277752;22;20525;-64
2024/01/03 00:57:24;;;;;;;5.50;3.00;;;;;;;6.58;99.78;98336.84;6277073;22;20023;-64
2024/01/03 00:59:51;;;;;;;4.72;2.65;;;;;;;6.64;99.64;98336.16;6277975;22;20382;-64
2024/01/03 01:02:19;;;;;;;5.72;2.45;;;;;;;6.59;99.41;98341.22;6277992;22;20027;-64
2024/01/03 01:04:46;;;;;;;4.35;2.20;;;;;;;6.56;99.65;98339.69;6278299;22;20024;-64
2024/01/03 01:07:12;;;;;;;3.85;2.40;;;;;;;6.58;99.60;98336.84;6278063;22;20023;-64
2024/01/03 01:09:39;;;;;;;3.85;2.42;;;;;;;6.60;99.69;98345.56;6279218;22;20026;-64
2024/01/03 01:12:06;;;;;;;3.45;2.22;;;;;;;6.65;99.35;98344.06;6279786;22;20024;-64
2024/01/03 01:14:32;;;;;;;3.75;2.38;;;;;;;6.59;99.45;98341.22;6280839;22;20078;-64
2024/01/03 01:16:59;;;;;;;3.85;2.20;;;;;;;6.55;99.49;98362.25;6256051;22;20035;-64
2024/01/03 01:19:25;;;;;;;2.95;1.92;;;;;;;6.64;99.14;98353.16;6251120;23;20045;-64
2024/01/03 01:21:52;;;;;;;2.67;1.77;;;;;;;6.56;98.84;98355.03;6250227;23;20119;-64
2024/01/03 01:24:19;;;;;;;3.22;1.40;;;;;;;6.65;99.12;98354.84;6249774;23;20020;-64
2024/01/03 01:26:45;;;;;;;3.45;1.00;;;;;;;6.65;98.58;98354.00;6250575;23;20024;-64
2024/01/03 01:29:12;;;;;;;3.70;1.30;;;;;;;6.68;98.52;98356.34;6249790;23;20024;-64
2024/01/03 01:31:40;;;;;;;1.77;1.40;;;;;;;6.67;98.37;98365.44;6249128;23;20051;-64
2024/01/03 01:34:07;;;;;;;1.85;0.90;;;;;;;6.75;98.27;98360.06;6249492;23;20384;-64
2024/01/03 01:36:33;;;;;;;1.30;0.90;;;;;;;6.67;98.46;98366.28;6248618;23;20024;-63
2024/01/03 01:39:00;;;;;;;3.40;1.10;;;;;;;6.62;98.38;98365.09;6249681;23;20109;-63
2024/01/03 01:41:26;;;;;;;10.00;1.67;;;;;;;6.61;98.45;98366.94;6249289;23;20020;-63
2024/01/03 01:43:53;;;;;;;3.40;1.10;;;;;;;6.60;98.81;98369.81;6249677;23;20082;-64
2024/01/03 01:46:20;;;;;;;1.38;0.90;;;;;;;6.58;98.58;98366.47;6249004;23;20931;-64
2024/01/03 01:48:47;;;;;;;2.00;0.75;;;;;;;6.53;98.51;98371.50;6249948;23;20020;-64
2024/01/03 01:51:15;;;;;;;3.33;0.80;;;;;;;6.57;98.29;98371.00;6249617;23;20023;-65
2024/01/03 01:53:42;;;;;;;1.92;0.77;;;;;;;6.56;98.31;98365.78;6249196;23;20074;-64
2024/01/03 01:56:11;;;;;;;1.67;0.90;;;;;;;6.64;98.06;98368.50;6249055;23;20078;-64
2024/01/03 01:58:41;;;;;;;1.67;0.85;;;;;;;6.51;98.29;98368.13;6250116;23;20036;-65
2024/01/03 02:01:07;;;;;;;1.15;0.90;;;;;;;6.49;98.94;98364.78;6249891;23;20028;-64
2024/01/03 02:03:36;;;;;;;2.95;0.82;;;;;;;6.58;98.17;98363.75;6249412;23;20020;-64
2024/01/03 02:09:50;;;;;;;1.88;0.57;;;;;;;6.58;98.28;98374.53;6247057;23;20070;-64
2024/01/03 02:12:29;;;;;;;3.28;1.25;;;;;;;6.62;98.57;98378.56;6248513;23;20047;-64
2024/01/03 02:14:55;;;;;;;2.35;1.10;;;;;;;6.73;97.81;98378.25;6247672;23;20024;-64
2024/01/03 02:17:22;;;;;;;1.90;1.02;;;;;;;6.70;98.10;98368.63;6253040;22;20470;-64
2024/01/03 02:19:50;;;;;;;1.83;0.45;;;;;;;6.78;98.02;98372.34;6277560;22;20070;-64
2024/01/03 02:22:17;;;;;;;2.05;0.70;;;;;;;6.82;97.84;98377.25;6278385;22;20338;-64
2024/01/03 02:24:44;;;;;;;3.00;0.50;;;;;;;6.77;97.81;98374.19;6278990;22;20025;-64
2024/01/03 02:27:10;;;;;;;0.63;0.43;;;;;;;6.80;97.58;98371.16;6278535;22;20031;-64
2024/01/03 02:29:38;;;;;;;0.68;0.50;;;;;;;6.88;97.51;98368.47;6277723;22;20030;-65
2024/01/03 02:32:05;;;;;;;1.38;0.52;;;;;;;6.89;97.33;98367.44;6277649;22;20104;-64
2024/01/03 02:34:31;;;;;;;0.75;0.60;;;;;;;6.89;97.23;98366.59;6278583;22;20020;-64
2024/01/03 02:36:58;;;;;;;1.25;0.50;;;;;;;6.96;96.93;98357.69;6277413;22;20031;-64
2024/01/03 02:39:25;;;;;;;0.98;0.65;;;;;;;6.94;97.21;98362.41;6279702;22;20049;-64
2024/01/03 02:41:52;;;;;;;2.40;0.60;;;;;;;7.00;96.63;98372.50;6278596;22;20027;-64
2024/01/03 02:44:23;;;;;;;1.70;0.57;;;;;;;6.95;97.15;98374.88;6277812;22;20098;-64
2024/01/03 02:46:49;;;;;;;0.67;0.40;;;;;;;7.02;96.50;98376.88;6278425;22;20054;-64
2024/01/03 02:49:16;;;;;;;1.52;0.40;;;;;;;7.01;96.76;98376.03;6278506;22;20024;-64
2024/01/03 02:51:43;;;;;;;2.53;0.40;;;;;;;7.04;96.79;98383.78;6278457;22;20023;-66
2024/01/03 02:54:09;;;;;;;0.75;0.50;;;;;;;7.02;96.74;98376.88;6278670;22;20027;-66
2024/01/03 02:56:41;;;;;;;1.40;0.50;;;;;;;7.03;96.68;98382.09;6278185;22;20011;-66
2024/01/03 02:59:07;;;;;;;0.52;0.40;;;;;;;7.04;96.48;98377.56;6277400;22;20507;-66
2024/01/03 03:01:34;;;;;;;1.23;0.43;;;;;;;6.97;96.63;98383.63;6277575;22;20028;-66
2024/01/03 03:04:00;;;;;;;3.40;0.82;;;;;;;6.92;97.08;98386.00;6278030;22;20097;-66
2024/01/03 03:06:28;;;;;;;1.23;0.50;;;;;;;6.88;97.16;98381.09;6277133;22;20020;-66
2024/01/03 03:08:55;;;;;;;0.52;0.30;;;;;;;6.80;97.41;98386.47;6277685;22;20098;-66
2024/01/03 03:11:41;;;;;;;3.00;0.40;;;;;;;6.93;96.60;98390.38;6276054;22;20077;-66
2024/01/03 03:14:10;;;;;;;2.50;0.75;;;;;;;6.83;96.89;98384.31;6277280;22;20028;-66
2024/01/03 03:16:37;;;;;;;2.13;0.68;;;;;;;6.85;96.79;98382.28;6256187;22;20016;-67
2024/01/03 03:19:05;;;;;;;3.92;0.60;;;;;;;6.93;96.71;98389.53;6220065;23;20455;-67
2024/01/03 03:21:32;;;;;;;0.57;0.30;;;;;;;6.82;97.12;98389.88;6246421;23;20078;-66
2024/01/03 03:24:00;;;;;;;2.90;0.60;;;;;;;6.76;96.98;98383.28;6246702;23;20024;-66
2024/01/03 03:26:27;;;;;;;7.95;0.65;;;;;;;6.75;96.92;98391.56;6246680;23;20020;-67
2024/01/03 03:28:54;;;;;;;1.40;0.40;;;;;;;6.73;96.58;98378.25;6248038;23;20024;-67
2024/01/03 03:31:20;;;;;;;2.95;0.63;;;;;;;6.77;96.04;98384.97;6247131;23;20024;-67
2024/01/03 03:33:47;;;;;;;2.15;0.63;;;;;;;6.79;96.03;98393.72;6246857;23;20320;-67
2024/01/03 03:36:15;;;;;;;2.28;0.55;;;;;;;6.85;95.56;98387.69;6248568;23;20390;-67
2024/01/03 03:38:41;;;;;;;1.73;0.52;;;;;;;6.71;95.72;98396.41;6249823;23;20020;-67
2024/01/03 03:41:12;;;;;;;1.65;0.50;;;;;;;6.60;96.40;98391.38;6251437;23;20024;-67
2024/01/03 03:43:40;;;;;;;2.42;0.50;;;;;;;6.62;96.48;98394.72;6251901;23;20077;-67
2024/01/03 03:46:07;;;;;;;3.22;0.75;;;;;;;6.75;95.55;98391.56;6255492;23;20401;-67
2024/01/03 03:48:34;;;;;;;0.60;0.40;;;;;;;6.64;95.99;98392.72;6255722;23;20020;-67
2024/01/03 03:51:03;;;;;;;2.15;0.40;;;;;;;6.63;96.03;98399.09;6256096;23;20028;-67
2024/01/03 03:53:30;;;;;;;1.83;0.50;;;;;;;6.65;95.93;98383.63;6256351;23;20348;-67
2024/01/03 03:55:56;;;;;;;3.42;0.40;;;;;;;6.50;96.24;98383.44;6258758;23;20051;-67
2024/01/03 03:58:22;;;;;;;2.85;0.50;;;;;;;6.63;95.92;98388.31;6258985;23;20024;-68
2024/01/03 04:00:50;;;;;;;3.08;0.60;;;;;;;6.53;96.25;98382.25;6233022;23;20058;-68
2024/01/03 04:03:17;;;;;;;4.07;0.63;;;;;;;6.48;96.32;98381.94;6257352;23;20035;-68
2024/01/03 04:05:45;;;;;;;5.28;1.38;;;;;;;6.49;96.27;98384.47;6258254;23;20020;-67
2024/01/03 04:08:11;;;;;;;1.42;0.60;;;;;;;6.57;95.98;98389.03;6258618;23;20028;-67
2024/01/03 04:10:39;;;;;;;2.70;0.50;;;;;;;6.55;96.00;98386.50;6259819;23;20088;-68
2024/01/03 04:13:06;;;;;;;0.93;0.40;;;;;;;6.51;96.06;98389.69;6261132;23;20020;-67
2024/01/03 04:15:34;;;;;;;1.40;0.50;;;;;;;6.40;96.55;98383.59;6259959;22;20031;-68
2024/01/03 04:18:04;;;;;;;3.20;0.40;;;;;;;6.48;96.41;98387.31;6260098;23;20020;-67
2024/01/03 04:20:30;;;;;;;4.10;0.40;;;;;;;6.46;96.39;98389.34;6261353;23;20031;-67
2024/01/03 04:22:57;;;;;;;1.83;0.55;;;;;;;6.42;96.51;98381.59;6260545;23;20044;-67
2024/01/03 04:25:24;;;;;;;3.90;0.70;;;;;;;6.50;95.95;98385.31;6262981;23;20040;-68
2024/01/03 04:27:50;;;;;;;5.03;0.57;;;;;;;6.44;96.01;98381.41;6261663;23;20028;-67
2024/01/03 04:30:17;;;;;;;1.77;0.45;;;;;;;6.47;95.78;98388.34;6262980;23;20035;-68
2024/01/03 04:32:44;;;;;;;3.83;0.43;;;;;;;6.49;95.65;98399.78;6263000;23;20046;-68
2024/01/03 04:35:10;;;;;;;1.63;0.57;;;;;;;6.55;95.40;98401.81;6265073;23;20052;-68
2024/01/03 04:37:37;;;;;;;32.55;1.35;;;;;;;6.51;95.33;98412.06;6265200;23;20024;-67
2024/01/03 04:40:04;;;;;;;1.00;0.50;;;;;;;6.52;95.33;98402.97;6263963;23;20048;-67
2024/01/03 04:42:30;;;;;;;1.95;0.60;;;;;;;6.64;94.84;98411.59;6265259;23;20016;-67
2024/01/03 04:44:57;;;;;;;2.55;0.38;;;;;;;6.60;95.20;98413.75;6264883;23;20028;-67
2024/01/03 04:47:24;;;;;;;2.05;0.50;;;;;;;6.70;94.34;98413.59;6266906;23;20051;-67
2024/01/03 04:49:50;;;;;;;2.03;0.47;;;;;;;6.64;94.34;98416.97;6266136;23;20075;-68
2024/01/03 04:52:17;;;;;;;4.45;0.50;;;;;;;6.66;94.64;98415.78;6266218;23;20379;-68
2024/01/03 04:54:43;;;;;;;3.45;1.00;;;;;;;6.73;93.89;98421.38;6266068;23;20028;-68
2024/01/03 04:57:10;;;;;;;4.05;0.90;;;;;;;6.73;94.25;98424.06;6266120;23;20012;-67
2024/01/03 04:59:37;;;;;;;3.50;0.70;;;;;;;6.71;93.75;98416.13;6266152;23;20020;-66
2024/01/03 05:02:04;;;;;;;3.97;0.85;;;;;;;6.70;93.85;98422.50;6266587;23;20028;-67
2024/01/03 05:04:30;;;;;;;4.53;1.52;;;;;;;6.66;94.07;98420.34;6267018;23;20059;-66
2024/01/03 05:06:57;;;;;;;3.30;0.73;;;;;;;6.63;94.32;98431.44;6267033;23;20031;-67
2024/01/03 05:09:25;;;;;;;3.63;0.90;;;;;;;6.61;94.05;98423.50;6268312;23;20020;-68
2024/01/03 05:11:52;;;;;;;4.85;1.20;;;;;;;6.71;93.80;98429.59;6267042;23;20024;-67
2024/01/03 05:14:19;;;;;;;2.20;0.85;;;;;;;6.72;93.14;98425.03;6268150;23;20067;-66
2024/01/03 05:16:46;;;;;;;5.22;1.10;;;;;;;6.72;93.19;98419.66;6266609;22;20039;-67
2024/01/03 05:19:13;;;;;;;4.57;1.02;;;;;;;6.78;92.50;98421.69;6267627;23;20024;-67
2024/01/03 05:21:40;;;;;;;3.75;1.00;;;;;;;6.80;91.90;98427.75;6267546;23;20012;-67
2024/01/03 05:24:06;;;;;;;2.05;0.60;;;;;;;6.80;92.04;98426.91;6241829;23;20028;-67
2024/01/03 05:26:36;;;;;;;9.30;0.95;;;;;;;6.64;92.03;98427.75;6267954;23;20024;-67
2024/01/03 05:29:03;;;;;;;5.10;1.08;;;;;;;6.66;92.51;98426.56;6267877;23;20047;-67
2024/01/03 05:31:29;;;;;;;8.07;1.10;;;;;;;6.66;92.26;98426.56;6267823;23;20008;-67
2024/01/03 05:33:56;;;;;;;6.63;1.13;;;;;;;6.68;91.98;98435.31;6267881;23;20086;-67
2024/01/03 05:36:22;;;;;;;8.18;1.10;;;;;;;6.73;91.43;98429.44;6267750;23;20072;-67
2024/01/03 05:38:49;;;;;;;5.43;1.15;;;;;;;6.78;91.61;98435.16;6267735;23;20024;-67
2024/01/03 05:41:16;;;;;;;4.00;0.93;;;;;;;6.71;92.09;98436.81;6267363;23;20028;-67
2024/01/03 05:43:45;;;;;;;9.23;1.20;;;;;;;6.79;91.24;98441.38;6268454;23;20096;-67
2024/01/03 05:46:11;;;;;;;6.13;0.95;;;;;;;6.77;91.30;98438.88;6241558;23;20023;-67
2024/01/03 05:48:38;;;;;;;9.88;1.17;;;;;;;6.84;90.64;98439.03;6266561;23;20035;-68
2024/01/03 05:51:08;;;;;;;4.25;0.80;;;;;;;6.82;90.89;98444.59;6266965;23;20028;-67
2024/01/03 05:53:35;;;;;;;4.80;1.00;;;;;;;6.84;90.70;98441.75;6267080;23;20035;-67
2024/01/03 05:56:04;;;;;;;2.55;0.52;;;;;;;6.85;90.49;98446.13;6266897;23;20027;-67
2024/01/03 05:58:30;;;;;;;13.57;1.23;;;;;;;6.98;89.50;98447.28;6266860;23;20031;-67
2024/01/03 06:00:57;;;;;;;3.95;0.88;;;;;;;6.90;89.51;98438.34;6266412;23;20028;-67
2024/01/03 06:03:24;;;;;;;1.60;0.57;;;;;;;7.04;88.62;98442.25;6266112;23;20026;-67
2024/01/03 06:05:52;;;;;;;5.63;0.60;;;;;;;7.02;89.23;98449.66;6265295;23;20047;-67
2024/01/03 06:08:18;;;;;;;6.55;1.02;;;;;;;6.96;89.28;98443.91;6264216;23;20023;-68
2024/01/03 06:10:45;;;;;;;4.40;0.82;;;;;;;6.91;89.56;98451.69;6266382;23;20004;-67
2024/01/03 06:13:15;;;;;;;2.80;0.70;;;;;;;6.98;88.97;98452.66;6264236;23;20032;-67
2024/01/03 06:15:41;;;;;;;4.05;0.82;;;;;;;6.91;89.04;98457.06;6264599;22;20027;-67
2024/01/03 06:18:10;;;;;;;4.53;0.77;;;;;;;7.02;88.89;98468.53;6264477;23;20028;-67
2024/01/03 06:20:37;;;;;;;2.83;0.63;;;;;;;7.14;87.44;98468.00;6263939;23;20040;-68
2024/01/03 06:23:03;;;;;;;6.82;1.20;;;;;;;7.11;88.22;98473.75;6263457;23;20016;-67
2024/01/03 06:25:32;;;;;;;4.32;1.10;;;;;;;7.13;88.08;98476.28;6263927;23;20076;-67
2024/01/03 06:27:59;;;;;;;3.05;0.80;;;;;;;7.19;87.58;98483.66;6263183;23;20024;-68
2024/01/03 06:30:26;;;;;;;6.93;2.00;;;;;;;7.06;88.02;98486.88;6265829;23;20023;-67
2024/01/03 06:32:52;;;;;;;9.65;2.00;;;;;;;7.09;87.91;98488.38;6263999;23;20028;-68
2024/01/03 06:35:19;;;;;;;5.68;1.50;;;;;;;7.20;87.25;98494.31;6263928;23;20068;-68
2024/01/03 06:37:46;;;;;;;5.07;1.55;;;;;;;7.14;88.02;98492.28;6264048;23;20022;-68
2024/01/03 06:40:13;;;;;;;10.20;1.55;;;;;;;7.09;87.48;98497.31;6265724;23;20035;-67
2024/01/03 06:42:42;;;;;;;8.10;1.27;;;;;;;7.08;88.18;98505.56;6240039;23;20004;-68
2024/01/03 06:45:09;;;;;;;5.13;1.55;;;;;;;7.20;87.45;98507.78;6266067;23;20035;-68
2024/01/03 06:47:36;;;;;;;6.82;1.77;;;;;;;7.21;87.44;98512.16;6266157;23;20032;-68
2024/01/03 06:50:03;;;;;;;5.90;1.42;;;;;;;7.21;87.34;98511.31;6266712;22;20012;-67
2024/01/03 06:52:29;;;;;;;3.50;0.95;;;;;;;7.13;88.05;98506.78;6267044;23;20056;-66
2024/01/03 06:54:57;;;;;;;4.25;0.95;;;;;;;7.11;88.32;98519.59;6267444;23;20096;-67
2024/01/03 06:57:23;;;;;;;2.90;0.80;;;;;;;7.19;87.57;98518.72;6268692;23;20059;-67
2024/01/03 06:59:50;;;;;;;7.32;1.08;;;;;;;7.21;87.77;98530.19;6266494;23;20024;-68
2024/01/03 07:02:16;;;;;;;6.18;1.10;;;;;;;7.20;87.08;98528.53;6267207;23;20024;-67
2024/01/03 07:04:43;;;;;;;3.83;0.77;;;;;;;7.22;87.08;98527.34;6266322;23;20027;-67
2024/01/03 07:07:12;;;;;;;5.80;1.45;;;;;;;7.20;87.02;98531.22;6266716;23;20076;-67
2024/01/03 07:09:39;;;;;;;5.30;0.93;;;;;;;7.22;86.56;98529.19;6265534;23;20346;-67
2024/01/03 07:12:06;;;;;;;4.10;0.88;;;;;;;7.24;86.56;98527.16;6265818;23;20028;-67
2024/01/03 07:14:32;;;;;;;3.28;0.90;;;;;;;7.18;87.59;98527.81;6264363;23;20116;-67
2024/01/03 07:16:59;;;;;;;8.55;0.88;;;;;;;7.13;87.85;98530.19;6265273;22;20047;-68
2024/01/03 07:19:25;;;;;;;4.40;1.13;;;;;;;7.25;86.89;98534.22;6266088;23;20024;-68
2024/01/03 07:21:52;;;;;;;5.18;0.95;;;;;;;7.28;86.21;98533.88;6264432;23;20024;-68
2024/01/03 07:24:18;;;;;;;3.55;0.98;;;;;;;7.31;86.59;98535.44;6264622;22;20032;-68
2024/01/03 07:26:45;;;;;;;9.30;1.15;;;;;;;7.23;87.05;98537.09;6264191;23;20020;-68
2024/01/03 07:29:12;;;;;;;3.80;1.00;;;;;;;7.25;86.67;98539.63;6262967;23;20032;-67
2024/01/03 07:31:38;;;;;;;7.00;1.90;;;;;;;7.28;85.44;98541.97;6262402;23;20028;-68
2024/01/03 07:34:05;;;;;;;5.80;1.25;;;;;;;7.34;84.82;98538.63;6235844;23;20035;-68
2024/01/03 07:36:31;;;;;;;6.13;1.17;;;;;;;7.28;86.01;98533.88;6261510;23;20028;-68
2024/01/03 07:39:00;;;;;;;4.97;0.93;;;;;;;7.34;84.88;98538.63;6263029;23;20055;-68
2024/01/03 07:41:27;;;;;;;6.80;1.20;;;;;;;7.28;84.83;98539.28;6263337;23;20024;-67
2024/01/03 07:43:54;;;;;;;6.10;1.08;;;;;;;7.31;84.94;98538.97;6262702;23;20031;-68
2024/01/03 07:46:20;;;;;;;4.90;1.05;;;;;;;7.35;84.19;98537.63;6261629;23;20378;-67
2024/01/03 07:48:47;;;;;;;7.13;1.30;;;;;;;7.32;84.76;98540.66;6260037;23;20350;-68
2024/01/03 07:51:18;;;;;;;3.45;0.68;;;;;;;7.31;84.72;98538.97;6256453;23;20032;-67
2024/01/03 07:53:45;;;;;;;5.93;1.00;;;;;;;7.39;83.56;98539.00;6256377;23;20447;-67
2024/01/03 07:56:11;;;;;;;5.97;0.80;;;;;;;7.32;83.79;98542.50;6257212;23;20028;-67
2024/01/03 07:58:38;;;;;;;8.55;1.17;;;;;;;7.30;83.47;98542.69;6254610;23;20054;-67
2024/01/03 08:01:05;;;;;;;5.28;1.15;;;;;;;7.36;82.97;98536.63;6252799;23;20026;-67
2024/01/03 08:03:31;;;;;;;5.55;1.55;;;;;;;7.38;83.33;98547.25;6254814;23;20012;-66
2024/01/03 08:05:58;;;;;;;9.13;1.13;;;;;;;7.42;83.10;98546.75;6226741;23;20024;-67
2024/01/03 08:08:29;;;;;;;6.85;1.73;;;;;;;7.43;82.59;98548.44;6252308;23;20327;-69
2024/01/03 08:10:55;;;;;;;9.00;2.38;;;;;;;7.43;82.77;98548.44;6252650;23;20099;-69
2024/01/03 08:13:22;;;;;;;4.53;1.17;;;;;;;7.56;82.37;98548.78;6250855;23;20157;-69
2024/01/03 08:15:48;;;;;;;8.93;1.42;;;;;;;7.45;83.08;98546.41;6250345;22;20020;-68
2024/01/03 08:18:17;;;;;;;6.72;0.93;;;;;;;7.46;82.69;98548.06;6249324;23;20055;-69
2024/01/03 08:20:44;;;;;;;3.92;0.95;;;;;;;7.45;82.85;98548.25;6249223;23;20020;-68
2024/01/03 08:23:10;;;;;;;3.67;1.00;;;;;;;7.50;82.40;98554.84;6250735;23;20035;-68
2024/01/03 08:25:37;;;;;;;8.60;1.00;;;;;;;7.54;81.60;98555.34;6250509;23;20027;-67
2024/01/03 08:28:04;;;;;;;6.93;0.80;;;;;;;7.50;83.09;98554.84;6249680;23;20024;-68
2024/01/03 08:30:31;;;;;;;4.43;0.95;;;;;;;7.63;81.14;98548.91;6248960;23;20047;-66
2024/01/03 08:32:59;;;;;;;7.07;0.73;;;;;;;7.53;81.85;98554.50;6251346;23;20028;-69
2024/01/03 08:35:26;;;;;;;6.25;1.10;;;;;;;7.63;81.33;98558.88;6249292;23;20036;-69
2024/01/03 08:37:53;;;;;;;2.78;0.80;;;;;;;7.70;80.57;98565.28;6248842;23;20030;-68
2024/01/03 08:40:20;;;;;;;5.38;0.80;;;;;;;7.67;81.22;98560.22;6249563;23;20343;-67
2024/01/03 08:42:47;;;;;;;4.90;0.65;;;;;;;7.67;82.17;98557.53;6249903;23;20026;-68
2024/01/03 08:45:14;;;;;;;5.43;1.63;;;;;;;7.74;80.96;98556.66;6250852;23;20024;-67
2024/01/03 08:47:40;;;;;;;9.57;0.90;;;;;;;7.73;81.06;98560.38;6252055;23;20024;-68
2024/01/03 08:50:07;;;;;;;3.15;0.63;;;;;;;7.73;80.00;98554.13;6253929;23;20363;-68
2024/01/03 08:52:35;;;;;;;6.40;1.55;;;;;;;7.75;80.88;98557.53;6250919;23;20024;-68
2024/01/03 08:55:02;;;;;;;4.38;1.00;;;;;;;7.75;81.34;98552.13;6250384;23;20028;-66
2024/01/03 08:57:30;;;;;;;5.25;1.10;;;;;;;7.82;80.42;98558.50;6252013;23;20343;-68
2024/01/03 08:59:57;;;;;;;4.90;1.15;;;;;;;7.85;80.29;98560.88;6251396;23;20027;-67
2024/01/03 09:02:24;;;;;;;4.35;1.08;;;;;;;7.83;80.45;98558.34;6251244;23;20047;-68
2024/01/03 09:04:50;;;;;;;8.00;1.00;;;;;;;7.93;81.08;98560.84;6254497;23;20034;-68
2024/01/03 09:07:17;;;;;;;6.78;1.02;;;;;;;8.00;79.74;98559.16;6254649;23;20028;-69
2024/01/03 09:09:43;;;;;;;3.67;1.00;;;;;;;7.90;80.90;98561.19;6257185;23;20051;-69
2024/01/03 09:12:10;;;;;;;3.85;1.00;;;;;;;8.06;79.22;98558.47;6256806;23;20024;-66
2024/01/03 09:14:37;;;;;;;3.42;1.00;;;;;;;8.08;79.50;98569.94;6257982;23;20024;-70
2024/01/03 09:17:04;;;;;;;5.45;0.90;;;;;;;8.17;79.59;98569.91;6259769;22;20028;-68
2024/01/03 09:19:30;;;;;;;9.13;1.25;;;;;;;8.27;78.90;98567.84;6258932;23;20027;-69
2024/01/03 09:21:59;;;;;;;2.60;0.93;;;;;;;8.30;78.77;98559.41;6259680;23;20020;-69
2024/01/03 09:24:29;;;;;;;8.70;1.05;;;;;;;8.40;77.56;98557.38;6259673;23;20109;-69
2024/01/03 09:26:57;;;;;;;4.93;1.13;;;;;;;8.50;77.59;98558.00;6257027;23;20055;-69
2024/01/03 09:29:24;;;;;;;6.03;0.90;;;;;;;8.49;78.54;98561.69;6255797;23;20031;-69
2024/01/03 09:31:50;;;;;;;6.10;1.77;;;;;;;8.47;78.18;98557.47;6255864;23;20024;-69
2024/01/03 09:34:17;;;;;;;5.47;0.93;;;;;;;8.57;75.88;98558.13;6255151;23;20024;-68
2024/01/03 09:36:44;;;;;;;5.97;1.25;;;;;;;8.57;76.75;98568.91;6254150;23;20390;-68
2024/01/03 09:39:12;;;;;;;2.35;0.75;;;;;;;8.75;75.93;98564.09;6251070;23;20024;-68
2024/01/03 09:41:39;;;;;;;4.78;1.08;;;;;;;8.81;76.00;98570.69;6247709;23;20020;-69
2024/01/03 09:44:06;;;;;;;5.85;1.10;;;;;;;8.93;74.89;98561.97;6246860;23;20030;-68
2024/01/03 09:46:34;;;;;;;5.70;1.38;;;;;;;9.00;75.12;98560.25;6248350;23;20478;-67
2024/01/03 09:49:01;;;;;;;6.18;1.77;;;;;;;9.01;74.46;98574.63;6246916;23;20034;-68
2024/01/03 09:51:29;;;;;;;5.65;1.00;;;;;;;9.03;74.73;98566.31;6244369;23;20099;-68
2024/01/03 09:53:56;;;;;;;4.82;1.27;;;;;;;8.88;74.56;98577.06;6243119;23;20339;-68
2024/01/03 09:56:23;;;;;;;6.15;1.20;;;;;;;8.92;75.89;98575.69;6242999;23;20042;-67
2024/01/03 09:58:51;;;;;;;8.90;1.30;;;;;;;8.90;75.38;98575.03;6243015;23;25047;-68
2024/01/03 10:01:18;;;;;;;6.97;1.15;;;;;;;8.88;75.00;98572.50;6243243;23;20028;-68
2024/01/03 10:03:45;;;;;;;5.38;1.10;;;;;;;9.02;74.80;98579.00;6242927;23;20362;-68
2024/01/03 10:06:15;;;;;;;4.85;1.15;;;;;;;9.01;74.46;98569.22;6242055;23;20342;-68
2024/01/03 10:09:00;;;;;;;5.78;1.25;;;;;;;9.07;73.88;98571.22;6242639;23;20016;-69
2024/01/03 10:11:27;;;;;;;6.65;1.13;;;;;;;9.11;74.83;98571.69;6242697;23;20455;-68
2024/01/03 10:13:56;;;;;;;2.75;1.17;;;;;;;9.24;74.31;98566.56;6241964;23;20024;-67
2024/01/03 10:16:28;;;;;;;4.68;0.90;;;;;;;9.27;73.44;98567.03;6242600;22;20045;-69
2024/01/03 10:19:11;;;;;;;4.70;1.35;;;;;;;9.19;72.99;98572.47;6242745;23;20025;-68
2024/01/03 10:21:45;;;;;;;3.47;1.02;;;;;;;9.32;72.63;98584.59;6241462;23;20518;-67
2024/01/03 10:24:12;;;;;;;6.13;1.10;;;;;;;9.28;73.64;98567.88;6241753;23;20024;-68
2024/01/03 10:26:39;;;;;;;8.20;1.38;;;;;;;9.33;72.25;98567.31;6241408;23;20024;-69
2024/01/03 10:29:09;;;;;;;4.32;1.10;;;;;;;9.32;73.32;98562.94;6241168;23;20027;-68
2024/01/03 10:31:37;;;;;;;5.88;1.27;;;;;;;9.33;73.32;98572.75;6241723;23;20016;-68
2024/01/03 10:34:08;;;;;;;7.13;1.33;;;;;;;9.42;72.43;98568.94;6242331;23;20063;-68
2024/01/03 10:36:37;;;;;;;6.75;1.30;;;;;;;9.34;73.25;98560.91;6242405;23;20015;-68
2024/01/03 10:39:05;;;;;;;6.18;1.30;;;;;;;9.39;72.97;98562.03;6242664;23;20466;-68
2024/01/03 10:41:33;;;;;;;6.72;1.10;;;;;;;9.44;72.17;98556.09;6242248;23;20487;-68
2024/01/03 10:44:01;;;;;;;4.78;0.90;;;;;;;9.33;72.51;98564.63;6242477;23;20043;-69
2024/01/03 10:46:28;;;;;;;7.88;1.35;;;;;;;9.35;73.37;98562.59;6241404;23;20102;-68
2024/01/03 10:48:55;;;;;;;6.45;1.17;;;;;;;9.40;73.08;98555.59;6241986;23;20086;-68
2024/01/03 10:51:24;;;;;;;5.88;1.08;;;;;;;9.45;72.01;98564.03;6241098;23;20403;-69
2024/01/03 10:53:58;;;;;;;5.82;1.27;;;;;;;9.48;72.47;98569.06;6240920;23;20042;-67
2024/01/03 10:56:26;;;;;;;6.13;1.25;;;;;;;9.46;72.65;98567.59;6240291;23;20064;-68
2024/01/03 10:58:54;;;;;;;6.85;1.42;;;;;;;9.46;72.03;98568.41;6240257;23;20023;-68
2024/01/03 11:01:29;;;;;;;4.60;1.27;;;;;;;9.52;71.94;98566.88;6240811;23;20455;-68
2024/01/03 11:04:07;;;;;;;4.78;1.20;;;;;;;9.37;72.55;98558.69;6240622;23;20086;-67
2024/01/03 11:06:56;;;;;;;3.03;0.80;;;;;;;9.43;72.63;98555.25;6240234;23;20016;-68
2024/01/03 11:09:25;;;;;;;4.40;0.98;;;;;;;9.60;72.05;98563.22;6240145;23;20108;-68
2024/01/03 11:12:10;;;;;;;5.15;1.02;;;;;;;9.57;72.69;98559.03;6240547;23;20049;-68
2024/01/03 11:14:37;;;;;;;6.80;1.55;;;;;;;9.50;72.16;98553.50;6240331;23;20106;-67
2024/01/03 11:17:06;;;;;;;6.20;1.10;;;;;;;9.54;72.20;98548.56;6240132;22;20030;-69
2024/01/03 11:19:33;;;;;;;4.63;1.33;;;;;;;9.61;71.87;98537.84;6240615;23;20016;-67
2024/01/03 11:22:04;;;;;;;5.07;0.98;;;;;;;9.60;72.12;98544.28;6241298;23;20481;-69
2024/01/03 11:24:31;;;;;;;5.78;1.10;;;;;;;9.63;72.02;98552.06;6241081;23;20028;-68
2024/01/03 11:27:04;;;;;;;4.70;1.00;;;;;;;9.55;72.51;98536.72;6240530;23;20024;-68
2024/01/03 11:29:35;;;;;;;4.05;0.90;;;;;;;9.63;72.65;98538.53;6240574;23;20047;-68
2024/01/03 11:32:06;;;;;;;3.30;0.77;;;;;;;9.62;72.47;98532.28;6241858;23;20107;-68
2024/01/03 11:34:47;;;;;;;3.47;1.20;;;;;;;9.79;71.99;98532.94;6240283;23;20024;-67
2024/01/03 11:37:18;;;;;;;4.60;1.00;;;;;;;9.68;72.48;98527.97;6240725;23;20016;-68
2024/01/03 11:39:46;;;;;;;4.78;1.38;;;;;;;9.84;72.10;98542.19;6239511;23;20020;-68
2024/01/03 11:42:25;;;;;;;6.60;1.15;;;;;;;9.94;70.71;98528.38;6239287;23;20093;-68
2024/01/03 11:45:09;;;;;;;5.68;1.33;;;;;;;9.85;71.71;98535.75;6239831;23;20024;-68
2024/01/03 11:47:40;;;;;;;8.60;1.48;;;;;;;9.83;71.55;98529.69;6239645;23;20530;-68
2024/01/03 11:50:12;;;;;;;5.45;1.10;;;;;;;9.75;71.69;98529.75;6239257;23;20031;-67